Terminal Aerodrome Forecast
Issued by NWS Greer, SC

Current Version | Previous Version | Text Only | Print | Product List | Glossary On
Versions: 1 2 3 4 5 6 7 8 9 10 11 12 13 14 15
391
FTUS42 KGSP 280238 AAB
TAFGSP
TAF AMD
KGSP 280238Z 2803/2824 04004KT P6SM SCT045 SCT120
     FM280800 04003KT P6SM SCT027
     FM281000 04005KT P6SM SCT012 BKN027
     FM281400 05007KT P6SM SCT035
     FM282000 06007KT P6SM SCT150=

USA.gov is the U.S. government's official web portal to all federal, state and local government web resources and services.